Hauptseite
METAR-TAF:

METAR-TAF

Flughäfen :

Heeresflugplatz Bückeburg

Bückeburg, Deutschland

Breite: 52-17N, Länge: 009-05E, Höhe: 70 m

Beobachtung

Neuester Wetterbericht von vor 1 Stunde und 7 Minuten, um 03:20 UTC
Wind 14 kt aus West
Temperatur 5°C
Luftfeuchtigkeit 81%
Luftdruck 1015 hPa
Sichtweite 10 km oder mehr
Durchbrochene Bewölkung in der Höhe von 1900 ft
Leichtregen

METAR: ETHB 250320Z 27014KT 9999 -RA BKN019 05/02 Q1015 WHT

Zeit: 05:27 (04:27 UTC)


TAF: fehlend

Wetterbeobachtungen und Prognosen von mehr als 4000 Flughäfen (METAR und TAF Bericht).

Die verfügbaren Stationen werden durch gelbe und rote Markierungen auf der Karte dargestellt.

Führen Sie die Maus auf sie, um den Namen der Station zu sehen.

Darauf klicken, um die Beobachtung von Wetterbeobachtungen und Prognosen zu sehen.

Um die Karte zu ändern : klicken Sie auf den grünen Tasten mit einem schwarzen Kreuz Zum Vergrößern, auf den grünen Button mit einem Gedankenstrich zu verkleinern, oder auf die grünen Pfeile für benachbarte Karten.


METAR-TAF: